Time;durP1;ratioP1;P1;durP2;ratioP2;P2;SDS_P1;SDS_P2;PMS_P1;PMS_P2;Temp;Humidity;BMP_temperature;BMP_pressure;BME280_temperature;BME280_humidity;BME280_pressure;Samples;Min_cycle;Max_cycle;Signal;HPM_P1;HPM_P2
2022/09/21 00:01:32;;;;;;;4.75;1.23;;;19.20;96.70;;;;;;5036985;28;20095;-81
2022/09/21 00:04:03;;;;;;;3.10;1.27;;;19.10;96.70;;;;;;5038977;28;20107;-80
2022/09/21 00:06:33;;;;;;;3.17;1.17;;;19.20;96.70;;;;;;5031642;28;20060;-80
2022/09/21 00:09:02;;;;;;;2.92;1.40;;;19.20;96.70;;;;;;5019942;28;20053;-80
2022/09/21 00:11:32;;;;;;;2.53;1.17;;;19.20;96.70;;;;;;5024403;28;20049;-80
2022/09/21 00:14:03;;;;;;;2.85;1.13;;;19.00;96.70;;;;;;5021887;28;20049;-80
2022/09/21 00:16:31;;;;;;;1.75;0.85;;;19.00;96.70;;;;;;5014651;28;20148;-80
2022/09/21 00:19:01;;;;;;;2.33;0.80;;;19.10;96.70;;;;;;5014833;28;20050;-78
2022/09/21 00:21:29;;;;;;;2.63;1.05;;;19.10;96.70;;;;;;5004994;28;20146;-81
2022/09/21 00:23:58;;;;;;;3.35;0.90;;;19.00;96.70;;;;;;4982025;28;20037;-80
2022/09/21 00:26:26;;;;;;;1.73;1.10;;;18.90;96.70;;;;;;5002266;28;20056;-80
2022/09/21 00:28:56;;;;;;;1.95;0.95;;;18.80;96.70;;;;;;4999621;28;20468;-80
2022/09/21 00:31:25;;;;;;;2.40;1.00;;;18.80;96.70;;;;;;5008304;28;20093;-79
2022/09/21 00:33:53;;;;;;;4.63;1.30;;;18.80;96.70;;;;;;4987897;28;20484;-79
2022/09/21 00:36:24;;;;;;;2.00;0.90;;;18.80;96.70;;;;;;4995623;28;20095;-81
2022/09/21 00:38:54;;;;;;;2.40;0.98;;;18.80;96.70;;;;;;4992665;28;20077;-82
2022/09/21 00:41:22;;;;;;;3.60;1.10;;;18.80;96.70;;;;;;4999789;28;20136;-82
2022/09/21 00:44:17;;;;;;;2.25;1.10;;;18.70;96.70;;;;;;4992908;28;20082;-79
2022/09/21 00:46:48;;;;;;;4.13;1.10;;;18.60;96.70;;;;;;5003032;28;20515;-81
2022/09/21 00:49:16;;;;;;;2.47;1.10;;;18.50;96.70;;;;;;4999466;28;20042;-80
2022/09/21 00:51:48;;;;;;;2.40;1.35;;;18.40;96.70;;;;;;4999776;28;20053;-80
2022/09/21 00:54:20;;;;;;;3.40;1.33;;;18.40;96.70;;;;;;5032852;28;20121;-80
2022/09/21 00:56:48;;;;;;;3.53;1.30;;;18.30;96.70;;;;;;5002013;28;20418;-80
2022/09/21 00:59:17;;;;;;;2.95;1.30;;;18.40;96.70;;;;;;5004746;28;20038;-80
2022/09/21 01:01:50;;;;;;;2.08;1.45;;;18.20;96.70;;;;;;4997717;28;20042;-80
2022/09/21 01:04:18;;;;;;;3.80;1.48;;;18.10;96.70;;;;;;5013434;28;20034;-80
2022/09/21 01:06:49;;;;;;;2.63;1.15;;;18.10;96.70;;;;;;4990412;28;20054;-80
2022/09/21 01:09:18;;;;;;;2.42;1.13;;;18.10;96.70;;;;;;5001449;28;20045;-80
2022/09/21 01:12:00;;;;;;;1.80;1.17;;;18.10;96.70;;;;;;5009851;28;20049;-80
2022/09/21 01:14:51;;;;;;;3.15;1.63;;;18.10;96.70;;;;;;5008229;28;20119;-80
2022/09/21 01:17:30;;;;;;;2.40;1.25;;;18.10;96.70;;;;;;4994704;28;20573;-79
2022/09/21 01:20:36;;;;;;;3.38;1.30;;;18.00;96.70;;;;;;4992758;28;20072;-80
2022/09/21 01:23:30;;;;;;;5.25;1.27;;;18.00;96.70;;;;;;4949250;28;20050;-79
2022/09/21 01:26:04;;;;;;;1.95;1.10;;;18.00;96.70;;;;;;4995368;28;20112;-79
2022/09/21 01:28:52;;;;;;;3.05;1.30;;;18.00;96.70;;;;;;5003974;28;20045;-80
2022/09/21 01:31:24;;;;;;;5.07;1.17;;;18.00;96.70;;;;;;5004035;28;20068;-80
2022/09/21 01:33:57;;;;;;;2.13;1.08;;;18.00;96.70;;;;;;5000468;28;20572;-80
2022/09/21 01:36:29;;;;;;;3.05;1.15;;;18.10;96.70;;;;;;5001772;28;20044;-79
2022/09/21 01:39:02;;;;;;;3.40;1.65;;;18.10;96.70;;;;;;4983661;28;20058;-79
2022/09/21 01:41:31;;;;;;;2.67;1.23;;;18.00;96.70;;;;;;5006182;28;20042;-80
2022/09/21 01:44:08;;;;;;;4.53;1.90;;;18.00;96.70;;;;;;5005709;28;20038;-79
2022/09/21 01:46:37;;;;;;;2.95;1.25;;;17.90;96.70;;;;;;5004742;28;20049;-79
2022/09/21 01:49:10;;;;;;;2.40;1.48;;;17.90;96.70;;;;;;4983838;28;20415;-80
2022/09/21 01:51:43;;;;;;;2.33;1.42;;;17.80;96.70;;;;;;4997693;28;20046;-80
2022/09/21 01:54:13;;;;;;;3.45;1.50;;;17.80;96.70;;;;;;5007479;28;20837;-80
2022/09/21 01:56:49;;;;;;;1.88;1.27;;;17.70;96.70;;;;;;5006406;28;20057;-81
2022/09/21 01:59:26;;;;;;;2.55;1.27;;;17.60;96.70;;;;;;5009588;28;20045;-80
2022/09/21 02:01:57;;;;;;;2.97;1.10;;;17.60;96.70;;;;;;5006851;28;20046;-79
2022/09/21 02:04:26;;;;;;;2.10;1.40;;;17.70;96.70;;;;;;4984985;28;20049;-79
2022/09/21 02:06:54;;;;;;;1.95;1.17;;;17.80;96.70;;;;;;4994330;28;20042;-79
2022/09/21 02:09:24;;;;;;;2.10;1.02;;;17.80;96.70;;;;;;4983627;28;20054;-79
2022/09/21 02:11:52;;;;;;;3.15;1.23;;;17.70;96.70;;;;;;4997902;28;20145;-79
2022/09/21 02:14:24;;;;;;;2.50;1.15;;;17.70;96.70;;;;;;4998187;28;20590;-79
2022/09/21 02:17:04;;;;;;;2.10;1.23;;;17.60;96.70;;;;;;5004105;28;20081;-79
2022/09/21 02:19:40;;;;;;;2.55;1.17;;;17.50;96.70;;;;;;5007237;28;20057;-79
2022/09/21 02:22:13;;;;;;;1.60;1.10;;;17.40;96.70;;;;;;5001770;28;20080;-80
2022/09/21 02:24:43;;;;;;;3.67;1.13;;;17.50;96.70;;;;;;5006370;28;20054;-80
2022/09/21 02:27:23;;;;;;;1.85;1.00;;;17.40;96.70;;;;;;5004991;28;20104;-79
2022/09/21 02:30:02;;;;;;;2.25;1.25;;;17.30;96.70;;;;;;5016893;28;20048;-80
2022/09/21 02:32:36;;;;;;;3.58;1.33;;;17.30;96.70;;;;;;5005403;28;20073;-78
2022/09/21 02:35:14;;;;;;;2.33;1.15;;;17.30;96.70;;;;;;5003892;28;20152;-78
2022/09/21 02:37:54;;;;;;;2.00;1.10;;;17.30;96.70;;;;;;5003160;28;20044;-78
2022/09/21 02:40:31;;;;;;;2.05;1.20;;;17.30;96.70;;;;;;5001369;28;20050;-79
2022/09/21 02:43:02;;;;;;;2.13;1.15;;;17.20;96.70;;;;;;4979881;28;20104;-77
2022/09/21 02:45:37;;;;;;;2.75;1.48;;;17.20;96.70;;;;;;4993094;28;20049;-78
2022/09/21 02:48:11;;;;;;;4.47;1.23;;;17.10;96.70;;;;;;5011540;28;20049;-78
2022/09/21 02:50:43;;;;;;;3.55;1.30;;;17.20;96.70;;;;;;4998376;28;20042;-78
2022/09/21 02:53:14;;;;;;;3.58;1.30;;;17.20;96.70;;;;;;5007084;28;20061;-79
2022/09/21 02:55:44;;;;;;;4.72;1.20;;;17.20;96.70;;;;;;5020188;28;20046;-78
2022/09/21 02:58:15;;;;;;;3.13;1.02;;;17.20;96.70;;;;;;5003344;28;20065;-78
2022/09/21 03:00:45;;;;;;;2.65;1.23;;;17.10;96.70;;;;;;4997672;28;20046;-77
2022/09/21 03:03:18;;;;;;;3.53;1.40;;;17.20;96.70;;;;;;5001635;28;20057;-82
2022/09/21 03:05:49;;;;;;;3.00;1.20;;;17.10;96.70;;;;;;4987019;28;20045;-81
2022/09/21 03:08:17;;;;;;;6.38;1.33;;;17.00;96.70;;;;;;4990315;28;20053;-82
2022/09/21 03:10:46;;;;;;;5.22;1.30;;;16.90;96.70;;;;;;5017096;28;20500;-81
2022/09/21 03:13:14;;;;;;;1.98;1.00;;;16.90;96.70;;;;;;5007581;28;20053;-81
2022/09/21 03:15:42;;;;;;;1.75;1.05;;;16.90;96.70;;;;;;5003658;28;20624;-81
2022/09/21 03:18:12;;;;;;;3.17;1.60;;;16.80;96.70;;;;;;4999079;28;20053;-82
2022/09/21 03:20:46;;;;;;;1.73;1.00;;;16.90;96.70;;;;;;5032335;28;20053;-81
2022/09/21 03:23:16;;;;;;;2.58;1.20;;;17.00;96.70;;;;;;5027507;28;20415;-82
2022/09/21 03:25:47;;;;;;;2.40;0.90;;;16.90;96.70;;;;;;5045616;28;20044;-82
2022/09/21 03:28:15;;;;;;;2.75;1.15;;;17.00;96.70;;;;;;5032392;28;20045;-81
2022/09/21 03:30:43;;;;;;;2.30;1.10;;;16.90;96.70;;;;;;5033961;28;20782;-81
2022/09/21 03:33:13;;;;;;;3.22;1.00;;;16.90;96.70;;;;;;5019082;28;20053;-83
2022/09/21 03:35:41;;;;;;;4.45;1.45;;;16.80;96.70;;;;;;5020632;28;20045;-81
2022/09/21 03:38:10;;;;;;;2.63;1.10;;;16.70;96.70;;;;;;5011080;28;20073;-82
2022/09/21 03:40:38;;;;;;;3.65;1.30;;;16.60;96.70;;;;;;5012486;28;20040;-82
2022/09/21 03:43:06;;;;;;;2.65;1.35;;;16.60;96.70;;;;;;5022473;28;20068;-82
2022/09/21 03:45:34;;;;;;;2.90;1.00;;;16.60;96.70;;;;;;5028681;28;20060;-81
2022/09/21 03:48:02;;;;;;;1.65;1.02;;;16.60;96.70;;;;;;5043899;28;20049;-82
2022/09/21 03:50:31;;;;;;;2.55;1.20;;;16.60;96.70;;;;;;5025032;28;20053;-81
2022/09/21 03:52:59;;;;;;;4.95;1.65;;;16.60;96.70;;;;;;5037091;28;20052;-82
2022/09/21 03:55:28;;;;;;;5.43;1.45;;;16.50;96.70;;;;;;5029265;28;20041;-82
2022/09/21 03:57:56;;;;;;;3.00;1.30;;;16.50;96.70;;;;;;5038126;28;20494;-81
2022/09/21 04:00:24;;;;;;;2.83;1.10;;;16.40;96.70;;;;;;5037903;28;20044;-81
2022/09/21 04:02:54;;;;;;;2.20;1.20;;;16.40;96.70;;;;;;5024881;28;20056;-81
2022/09/21 04:05:23;;;;;;;3.65;1.13;;;16.30;96.70;;;;;;5046974;28;20048;-82
2022/09/21 04:07:55;;;;;;;2.80;1.08;;;16.30;96.70;;;;;;5018435;28;20123;-82
2022/09/21 04:10:28;;;;;;;4.68;1.38;;;16.30;96.70;;;;;;5043723;28;20147;-82
2022/09/21 04:12:57;;;;;;;5.30;1.42;;;16.30;96.70;;;;;;5027895;28;20045;-82
2022/09/21 04:15:25;;;;;;;2.22;1.42;;;16.40;96.70;;;;;;5041073;28;20536;-82
2022/09/21 04:17:54;;;;;;;2.22;1.23;;;16.30;96.70;;;;;;5036725;28;20037;-82
2022/09/21 04:20:22;;;;;;;3.15;1.35;;;16.40;96.70;;;;;;5032813;28;20499;-82
2022/09/21 04:22:52;;;;;;;4.45;1.13;;;16.40;96.70;;;;;;5037219;28;20071;-82
2022/09/21 04:25:20;;;;;;;4.75;1.45;;;16.60;96.70;;;;;;5057049;28;20041;-79
2022/09/21 04:27:49;;;;;;;3.50;1.50;;;16.50;96.70;;;;;;5014892;28;20048;-82
2022/09/21 04:30:18;;;;;;;4.80;1.20;;;16.50;96.70;;;;;;5032029;28;20486;-82
2022/09/21 04:32:46;;;;;;;2.97;1.38;;;16.50;96.70;;;;;;5047393;28;20044;-82
2022/09/21 04:35:14;;;;;;;2.20;1.00;;;16.60;96.70;;;;;;5032934;28;20045;-82
2022/09/21 04:37:42;;;;;;;4.18;1.52;;;16.50;96.70;;;;;;5033241;28;20557;-82
2022/09/21 04:40:12;;;;;;;1.90;1.05;;;16.40;96.70;;;;;;5035851;28;20064;-81
2022/09/21 04:42:40;;;;;;;3.00;1.40;;;16.30;96.70;;;;;;5046135;28;20473;-80
2022/09/21 04:45:09;;;;;;;4.53;1.48;;;16.30;96.70;;;;;;5026127;28;20095;-80
2022/09/21 04:47:38;;;;;;;2.50;1.00;;;16.30;96.70;;;;;;5048404;28;20068;-80
2022/09/21 04:50:07;;;;;;;1.83;1.10;;;16.20;96.70;;;;;;5025318;28;20061;-80
2022/09/21 04:52:35;;;;;;;2.67;1.08;;;16.20;96.70;;;;;;5031279;28;20045;-80
2022/09/21 04:55:04;;;;;;;5.97;1.50;;;16.20;96.70;;;;;;5046743;28;20144;-80
2022/09/21 04:57:34;;;;;;;3.58;1.23;;;16.20;96.70;;;;;;5028796;28;20087;-81
2022/09/21 05:00:04;;;;;;;2.33;1.10;;;16.20;96.70;;;;;;5012105;28;20072;-81
2022/09/21 05:02:32;;;;;;;2.58;1.20;;;16.10;96.70;;;;;;5022650;28;20125;-80
2022/09/21 05:05:00;;;;;;;1.50;1.08;;;16.30;96.70;;;;;;5015682;28;20061;-81
2022/09/21 05:07:28;;;;;;;2.33;1.38;;;16.20;96.70;;;;;;5047397;28;20049;-80
2022/09/21 05:10:02;;;;;;;5.43;1.40;;;16.10;96.70;;;;;;5022235;28;20107;-81
2022/09/21 05:12:31;;;;;;;4.20;1.33;;;16.10;96.70;;;;;;5026600;28;20060;-81
2022/09/21 05:15:01;;;;;;;9.57;1.70;;;16.10;96.70;;;;;;5027348;28;20545;-80
2022/09/21 05:17:29;;;;;;;6.10;1.30;;;16.10;96.70;;;;;;5039951;28;20043;-81
2022/09/21 05:19:57;;;;;;;2.38;1.00;;;16.10;96.70;;;;;;5042891;28;20073;-79
2022/09/21 05:22:26;;;;;;;6.53;1.30;;;16.00;96.70;;;;;;5029542;28;20056;-79
2022/09/21 05:24:54;;;;;;;3.25;1.13;;;16.00;96.70;;;;;;5040074;28;20135;-81
2022/09/21 05:27:23;;;;;;;2.92;1.20;;;16.00;96.70;;;;;;5029752;28;20119;-80
2022/09/21 05:29:51;;;;;;;4.18;1.27;;;16.00;96.70;;;;;;5029811;28;20103;-80
2022/09/21 05:32:26;;;;;;;3.10;1.50;;;16.10;96.70;;;;;;5040766;28;20069;-84
2022/09/21 05:35:05;;;;;;;3.67;1.40;;;16.20;96.70;;;;;;5022176;28;20052;-85
2022/09/21 05:37:47;;;;;;;4.35;1.42;;;16.10;96.70;;;;;;5026746;28;20061;-85
2022/09/21 05:40:16;;;;;;;5.18;1.45;;;16.10;96.70;;;;;;5016146;28;20057;-85
2022/09/21 05:42:45;;;;;;;4.50;1.30;;;16.10;96.70;;;;;;5039449;28;20045;-84
2022/09/21 05:45:15;;;;;;;3.17;1.40;;;16.10;96.70;;;;;;5049585;28;20065;-84
2022/09/21 05:47:54;;;;;;;5.07;1.50;;;16.10;96.70;;;;;;5012557;28;20057;-85
2022/09/21 05:50:33;;;;;;;5.03;1.10;;;16.10;96.70;;;;;;5048243;28;20043;-85
2022/09/21 05:53:12;;;;;;;3.95;1.38;;;16.10;96.70;;;;;;5029453;28;20053;-83
2022/09/21 05:55:48;;;;;;;5.30;2.15;;;16.30;96.70;;;;;;5041610;28;20053;-82
2022/09/21 05:58:20;;;;;;;;;;;16.30;96.70;;;;;;5030323;28;20471;-81
2022/09/21 06:01:02;;;;;;;5.38;2.10;;;16.30;96.70;;;;;;5049771;28;19924;-83
2022/09/21 06:03:35;;;;;;;6.60;2.75;;;16.20;96.70;;;;;;5044080;28;20045;-83
2022/09/21 06:06:03;;;;;;;7.07;2.63;;;16.30;96.70;;;;;;5048083;28;20072;-83
2022/09/21 06:08:31;;;;;;;7.63;2.72;;;16.40;96.70;;;;;;5031773;28;20167;-80
2022/09/21 06:10:59;;;;;;;6.32;1.98;;;16.40;96.70;;;;;;5011113;28;20044;-81
2022/09/21 06:13:27;;;;;;;5.72;2.35;;;16.40;96.70;;;;;;5027293;28;20055;-81
2022/09/21 06:15:55;;;;;;;5.30;2.35;;;16.50;96.70;;;;;;5044917;28;20045;-82
2022/09/21 06:18:24;;;;;;;7.95;3.05;;;16.60;96.70;;;;;;5046802;28;20087;-82
2022/09/21 06:20:53;;;;;;;5.65;2.60;;;16.60;96.70;;;;;;5020562;28;20091;-82
2022/09/21 06:23:21;;;;;;;6.38;2.88;;;16.60;96.70;;;;;;5031100;28;20056;-83
2022/09/21 06:25:51;;;;;;;5.75;3.03;;;16.70;96.70;;;;;;5030502;28;20045;-80
2022/09/21 06:28:26;;;;;;;6.97;3.13;;;16.80;96.70;;;;;;5024593;28;20045;-81
2022/09/21 06:30:55;;;;;;;9.10;4.22;;;16.80;96.70;;;;;;5040455;28;20041;-79
2022/09/21 06:33:24;;;;;;;14.35;6.22;;;16.80;96.70;;;;;;5029022;28;20051;-84
2022/09/21 06:35:55;;;;;;;13.88;6.50;;;16.90;96.70;;;;;;5023521;28;20049;-83
2022/09/21 06:38:24;;;;;;;16.13;6.72;;;17.00;96.70;;;;;;5043750;28;20037;-81
2022/09/21 06:40:52;;;;;;;15.90;7.30;;;17.10;96.70;;;;;;5004852;28;20944;-79
2022/09/21 06:43:21;;;;;;;15.15;7.32;;;17.20;96.70;;;;;;5042472;28;20471;-80
2022/09/21 06:45:53;;;;;;;16.00;7.05;;;17.30;96.70;;;;;;5012510;28;20541;-80
2022/09/21 06:48:21;;;;;;;16.98;6.88;;;17.30;96.70;;;;;;5027322;28;20162;-80
2022/09/21 06:50:49;;;;;;;18.33;6.90;;;17.40;96.70;;;;;;5005563;28;20037;-79
2022/09/21 06:53:19;;;;;;;13.45;6.10;;;17.60;96.70;;;;;;5024427;28;20069;-80
2022/09/21 06:55:48;;;;;;;10.68;5.35;;;17.70;96.70;;;;;;5016135;28;20041;-80
2022/09/21 06:58:16;;;;;;;7.97;3.83;;;17.80;96.70;;;;;;5044136;28;20111;-80
2022/09/21 07:00:44;;;;;;;8.52;3.95;;;17.90;96.70;;;;;;5052607;28;20127;-80
2022/09/21 07:03:13;;;;;;;5.97;3.40;;;18.00;96.70;;;;;;5012518;28;20133;-80
2022/09/21 07:05:45;;;;;;;7.60;3.13;;;18.20;96.70;;;;;;5021635;28;20598;-80
2022/09/21 07:08:13;;;;;;;6.60;3.25;;;18.30;96.70;;;;;;5023026;28;20368;-80
2022/09/21 07:11:03;;;;;;;5.50;2.97;;;18.40;96.70;;;;;;5033690;28;20052;-80
2022/09/21 07:13:31;;;;;;;6.25;3.05;;;18.50;96.70;;;;;;5000964;28;20053;-80
2022/09/21 07:16:04;;;;;;;7.75;3.28;;;18.50;96.70;;;;;;5026544;28;20060;-80
2022/09/21 07:18:33;;;;;;;5.05;2.60;;;18.60;96.70;;;;;;5006208;28;20061;-80
2022/09/21 07:21:10;;;;;;;6.32;2.80;;;18.70;96.70;;;;;;5010972;28;20083;-80
2022/09/21 07:23:38;;;;;;;6.50;3.17;;;18.80;96.70;;;;;;5045031;28;20044;-80
2022/09/21 07:26:10;;;;;;;5.82;3.15;;;18.90;96.70;;;;;;5006041;28;20556;-80
2022/09/21 07:28:39;;;;;;;6.35;3.22;;;18.90;96.70;;;;;;5031006;28;20566;-79
2022/09/21 07:31:08;;;;;;;6.65;3.05;;;19.00;96.70;;;;;;5035984;28;20045;-79
2022/09/21 07:33:36;;;;;;;5.05;2.35;;;19.10;96.70;;;;;;5017840;28;20056;-80
2022/09/21 07:36:09;;;;;;;3.92;1.67;;;19.20;96.70;;;;;;5038616;28;20047;-80
2022/09/21 07:38:38;;;;;;;3.15;0.90;;;19.30;96.70;;;;;;5024250;28;20128;-80
2022/09/21 07:41:09;;;;;;;3.90;0.60;;;19.40;96.70;;;;;;5018613;28;20040;-78
2022/09/21 07:43:40;;;;;;;1.60;0.35;;;19.50;96.70;;;;;;5036027;28;20082;-79
2022/09/21 07:46:10;;;;;;;0.57;0.20;;;19.60;96.70;;;;;;5024220;28;20451;-79
2022/09/21 07:48:39;;;;;;;1.25;0.30;;;19.70;96.70;;;;;;5017964;28;20041;-80
2022/09/21 07:51:09;;;;;;;2.03;0.30;;;19.80;96.70;;;;;;5025164;28;20048;-80
2022/09/21 07:53:39;;;;;;;3.33;0.40;;;19.90;96.70;;;;;;5033971;28;20044;-80
2022/09/21 07:56:11;;;;;;;1.95;0.30;;;20.00;96.70;;;;;;5009300;28;20566;-81
2022/09/21 08:01:27;;;;;;;0.63;0.30;;;20.10;96.70;;;;;;5040315;28;20045;-81
2022/09/21 08:03:57;;;;;;;0.95;0.43;;;20.10;96.70;;;;;;5030738;28;20383;-81
2022/09/21 08:06:27;;;;;;;0.80;0.20;;;20.20;96.70;;;;;;5033200;28;20049;-83
2022/09/21 08:08:54;;;;;;;0.88;0.20;;;20.20;96.70;;;;;;5051849;28;20502;-81
2022/09/21 08:14:18;;;;;;;1.00;0.20;;;20.20;96.70;;;;;;5164267;27;20429;-83
2022/09/21 08:16:52;;;;;;;2.15;0.30;;;20.30;96.70;;;;;;5110304;28;20047;-81
2022/09/21 08:19:24;;;;;;;1.88;0.28;;;20.30;96.70;;;;;;5120624;28;20154;-80
2022/09/21 08:21:53;;;;;;;2.90;0.30;;;20.30;96.70;;;;;;5121472;27;20088;-80
2022/09/21 08:24:27;;;;;;;1.23;0.40;;;20.40;96.70;;;;;;5118392;28;20589;-80
2022/09/21 08:26:55;;;;;;;0.95;0.20;;;20.40;96.70;;;;;;5121603;28;20035;-79
2022/09/21 08:29:25;;;;;;;1.95;0.30;;;20.50;96.70;;;;;;5123101;27;20043;-79
2022/09/21 08:31:53;;;;;;;3.15;0.45;;;20.60;96.70;;;;;;5101110;28;20130;-80
2022/09/21 08:34:22;;;;;;;2.15;0.20;;;20.60;96.70;;;;;;5103501;28;20131;-80
2022/09/21 08:36:55;;;;;;;1.25;0.30;;;20.60;96.70;;;;;;5104136;28;20489;-80
2022/09/21 08:39:23;;;;;;;1.10;0.20;;;20.70;96.70;;;;;;5115231;28;20042;-79
2022/09/21 08:42:01;;;;;;;1.70;0.40;;;20.70;96.70;;;;;;5121892;28;20141;-80
2022/09/21 08:44:36;;;;;;;1.00;0.40;;;20.70;96.70;;;;;;5116371;28;20146;-81
2022/09/21 08:47:10;;;;;;;1.92;0.20;;;20.90;96.70;;;;;;5116575;28;20043;-80
2022/09/21 08:49:40;;;;;;;1.05;0.30;;;21.00;96.70;;;;;;5120813;28;20134;-80
2022/09/21 08:52:12;;;;;;;3.75;0.28;;;21.10;96.70;;;;;;5098176;27;20049;-79
2022/09/21 08:54:50;;;;;;;2.10;0.10;;;21.10;96.70;;;;;;5120404;28;20043;-81
2022/09/21 08:57:19;;;;;;;0.70;0.22;;;21.10;96.70;;;;;;5120703;28;20039;-81
2022/09/21 08:59:49;;;;;;;2.65;0.30;;;21.10;96.70;;;;;;5120581;28;20040;-81
2022/09/21 09:02:34;;;;;;;1.73;0.30;;;21.20;96.70;;;;;;5132755;27;20519;-81
2022/09/21 09:05:11;;;;;;;1.60;0.25;;;21.30;96.70;;;;;;5116449;28;20182;-81
2022/09/21 09:08:08;;;;;;;1.83;0.22;;;21.40;96.70;;;;;;5117225;27;20043;-81
2022/09/21 09:10:38;;;;;;;1.23;0.40;;;21.40;96.70;;;;;;5121689;28;20046;-81
2022/09/21 09:13:28;;;;;;;0.35;0.20;;;21.40;96.70;;;;;;5117606;28;20051;-81
2022/09/21 09:16:06;;;;;;;1.83;0.60;;;21.40;96.70;;;;;;5116192;27;20050;-80
2022/09/21 09:18:42;;;;;;;3.10;0.38;;;21.50;96.70;;;;;;5121995;27;20042;-80
2022/09/21 09:21:15;;;;;;;1.60;0.50;;;21.40;96.70;;;;;;5099751;28;20419;-82
2022/09/21 09:23:59;;;;;;;1.55;0.30;;;21.40;96.70;;;;;;5120108;27;20128;-83
2022/09/21 09:26:33;;;;;;;1.20;0.60;;;21.60;96.70;;;;;;5110328;28;20130;-83
2022/09/21 09:29:08;;;;;;;0.73;0.20;;;21.70;96.70;;;;;;5095749;28;20043;-83
2022/09/21 09:31:38;;;;;;;0.60;0.30;;;21.70;96.70;;;;;;5091950;28;20101;-83
2022/09/21 09:34:11;;;;;;;1.42;0.22;;;21.70;96.70;;;;;;5101773;28;20436;-83
2022/09/21 09:36:44;;;;;;;0.80;0.22;;;21.80;96.70;;;;;;5107098;28;20068;-83
2022/09/21 09:39:29;;;;;;;0.60;0.30;;;21.90;96.70;;;;;;5110301;28;20516;-83
2022/09/21 09:42:18;;;;;;;2.08;0.17;;;22.00;96.70;;;;;;5102629;28;20039;-83
2022/09/21 09:44:59;;;;;;;1.17;0.40;;;22.20;96.70;;;;;;5106093;28;20058;-83
2022/09/21 09:47:42;;;;;;;0.80;0.30;;;22.30;96.70;;;;;;5103622;28;20473;-81
2022/09/21 09:50:13;;;;;;;2.10;0.30;;;22.30;96.70;;;;;;5107655;28;20122;-79
2022/09/21 09:52:42;;;;;;;1.20;0.20;;;22.30;96.70;;;;;;5105705;28;20412;-82
2022/09/21 09:55:19;;;;;;;1.58;0.32;;;22.20;96.70;;;;;;5105711;28;20075;-81
2022/09/21 09:57:48;;;;;;;0.98;0.30;;;22.20;96.70;;;;;;5107258;28;20040;-80
2022/09/21 10:00:18;;;;;;;1.30;0.28;;;22.40;96.70;;;;;;5106207;28;20085;-81
2022/09/21 10:02:50;;;;;;;1.52;0.30;;;22.50;96.70;;;;;;5102926;28;20434;-81
2022/09/21 10:05:23;;;;;;;1.55;0.30;;;22.60;96.70;;;;;;5107785;28;20057;-80
2022/09/21 10:07:52;;;;;;;1.15;0.13;;;22.70;96.70;;;;;;5106575;27;20035;-79
2022/09/21 10:10:40;;;;;;;1.75;0.30;;;22.70;96.70;;;;;;5078742;28;20080;-78
2022/09/21 10:13:15;;;;;;;1.85;0.30;;;22.70;96.70;;;;;;5106298;28;20060;-81
2022/09/21 10:15:48;;;;;;;1.17;0.10;;;22.90;96.70;;;;;;5105706;28;20134;-80
2022/09/21 10:18:23;;;;;;;1.25;0.30;;;22.90;96.70;;;;;;5092260;28;20104;-82
2022/09/21 10:21:01;;;;;;;1.17;0.10;;;23.00;96.70;;;;;;5108734;28;20039;-83
2022/09/21 10:23:31;;;;;;;0.85;0.20;;;23.00;96.70;;;;;;5109260;28;20187;-83
2022/09/21 10:26:33;;;;;;;0.75;0.10;;;23.10;96.70;;;;;;5107970;28;20043;-83
2022/09/21 10:29:16;;;;;;;0.73;0.32;;;23.00;96.70;;;;;;5091190;28;20122;-83
2022/09/21 10:31:56;;;;;;;1.00;0.15;;;23.10;96.70;;;;;;5106945;28;20066;-83
2022/09/21 10:34:28;;;;;;;0.50;0.10;;;23.10;96.70;;;;;;5107721;28;20142;-83
2022/09/21 10:37:02;;;;;;;;;;;23.20;96.70;;;;;;5106571;28;20092;-83
2022/09/21 10:39:31;;;;;;;0.20;0.10;;;23.50;96.70;;;;;;5095022;28;20381;-82
2022/09/21 10:42:04;;;;;;;1.27;0.25;;;23.60;96.70;;;;;;5101377;28;20484;-83
2022/09/21 10:44:39;;;;;;;0.88;0.40;;;23.70;96.70;;;;;;5101877;28;20064;-82
2022/09/21 10:47:17;;;;;;;5.05;0.25;;;23.70;96.70;;;;;;5107918;28;20047;-83
2022/09/21 10:49:49;;;;;;;0.65;0.22;;;23.90;96.70;;;;;;5084299;28;20051;-83
2022/09/21 10:52:21;;;;;;;1.65;0.30;;;23.80;96.70;;;;;;5087140;28;20548;-82
2022/09/21 10:54:52;;;;;;;1.35;0.30;;;23.80;96.70;;;;;;5107055;28;20048;-83
2022/09/21 10:57:23;;;;;;;2.58;0.38;;;23.70;96.70;;;;;;5091298;28;20050;-83
2022/09/21 10:59:51;;;;;;;0.95;0.40;;;23.70;96.70;;;;;;5090176;28;20052;-84
2022/09/21 11:02:45;;;;;;;1.55;0.30;;;23.60;96.70;;;;;;5103577;28;20040;-83
2022/09/21 11:05:20;;;;;;;1.88;0.25;;;23.70;96.70;;;;;;5105702;28;20042;-83
2022/09/21 11:07:58;;;;;;;0.90;0.30;;;23.80;96.70;;;;;;5107336;28;20044;-84
2022/09/21 11:10:32;;;;;;;0.50;0.20;;;24.10;96.70;;;;;;5107381;28;20079;-87
2022/09/21 11:13:22;;;;;;;0.68;0.20;;;23.90;96.70;;;;;;5079973;28;20146;-82
2022/09/21 11:15:56;;;;;;;2.83;0.40;;;24.10;96.70;;;;;;5104803;28;20060;-81
2022/09/21 11:18:36;;;;;;;1.75;0.40;;;24.00;96.70;;;;;;5107033;28;20046;-82
2022/09/21 11:21:18;;;;;;;1.17;0.28;;;24.10;96.70;;;;;;5085948;28;20496;-82
2022/09/21 11:23:58;;;;;;;0.63;0.40;;;23.90;96.70;;;;;;5104097;28;20032;-82
2022/09/21 11:26:31;;;;;;;1.08;0.30;;;23.80;96.70;;;;;;5103290;28;20048;-83
2022/09/21 11:29:07;;;;;;;1.50;0.40;;;24.10;96.70;;;;;;5081424;28;20044;-83
2022/09/21 11:31:50;;;;;;;0.73;0.30;;;24.40;96.70;;;;;;5102327;28;20040;-82
2022/09/21 11:34:43;;;;;;;2.55;0.40;;;24.60;96.70;;;;;;5101537;28;20036;-83
2022/09/21 11:37:22;;;;;;;1.38;0.20;;;24.50;96.70;;;;;;5102108;28;20044;-83
2022/09/21 11:40:06;;;;;;;0.75;0.35;;;24.50;96.70;;;;;;5102540;28;20150;-83
2022/09/21 11:42:48;;;;;;;1.02;0.30;;;24.70;96.70;;;;;;5103138;28;20085;-81
2022/09/21 11:45:32;;;;;;;0.80;0.35;;;25.10;96.70;;;;;;5082549;28;20071;-80
2022/09/21 11:48:15;;;;;;;2.28;0.30;;;25.20;96.70;;;;;;5101094;28;20083;-80
2022/09/21 11:50:54;;;;;;;1.27;0.35;;;25.00;96.70;;;;;;5104046;28;20050;-80
2022/09/21 11:53:36;;;;;;;0.80;0.20;;;25.00;96.70;;;;;;5101596;28;20055;-79
2022/09/21 11:56:24;;;;;;;4.32;0.40;;;25.00;96.70;;;;;;5102741;28;20134;-81
2022/09/21 11:59:02;;;;;;;2.63;0.20;;;25.00;96.70;;;;;;5093885;28;20035;-80
2022/09/21 12:01:44;;;;;;;2.42;0.40;;;25.00;96.70;;;;;;5101744;28;20044;-80
2022/09/21 12:04:31;;;;;;;0.50;0.20;;;25.20;96.70;;;;;;5101739;28;20048;-83
2022/09/21 12:07:12;;;;;;;0.75;0.30;;;25.20;96.70;;;;;;5102322;28;20104;-82
2022/09/21 12:10:02;;;;;;;0.68;0.20;;;25.30;96.70;;;;;;5104950;28;20048;-82
2022/09/21 12:12:44;;;;;;;2.15;0.30;;;25.40;96.70;;;;;;5101731;28;20056;-84
2022/09/21 12:15:21;;;;;;;0.70;0.25;;;25.70;96.70;;;;;;5107044;28;20465;-83
2022/09/21 12:18:02;;;;;;;1.17;0.20;;;25.80;96.70;;;;;;5082560;28;20074;-85
2022/09/21 12:20:38;;;;;;;2.65;0.30;;;25.70;96.70;;;;;;5100749;28;20040;-86
2022/09/21 12:23:15;;;;;;;0.88;0.20;;;25.80;96.70;;;;;;5107694;28;20096;-85
2022/09/21 12:25:50;;;;;;;1.95;0.40;;;25.80;96.60;;;;;;5106271;28;20069;-85
2022/09/21 12:28:24;;;;;;;0.70;0.22;;;25.40;96.70;;;;;;5089252;28;20071;-86
2022/09/21 12:30:57;;;;;;;2.85;0.28;;;25.20;96.70;;;;;;5090220;28;20070;-84
2022/09/21 12:33:35;;;;;;;1.48;0.50;;;25.20;96.70;;;;;;5099158;28;20055;-86
2022/09/21 12:36:10;;;;;;;3.78;0.95;;;25.00;96.70;;;;;;5096698;28;20044;-86
2022/09/21 12:38:43;;;;;;;1.35;0.28;;;24.90;96.70;;;;;;5103557;28;20054;-86
2022/09/21 12:41:17;;;;;;;1.77;0.20;;;25.20;96.70;;;;;;5101499;28;20043;-85
2022/09/21 12:43:52;;;;;;;0.75;0.20;;;25.30;96.70;;;;;;5107098;28;20188;-89
2022/09/21 12:46:23;;;;;;;0.75;0.20;;;25.40;96.70;;;;;;5106871;28;20067;-85
2022/09/21 12:48:52;;;;;;;1.60;0.20;;;25.20;96.60;;;;;;5106299;28;20074;-86
2022/09/21 12:51:28;;;;;;;2.30;0.35;;;25.30;96.70;;;;;;5107899;28;20085;-85
2022/09/21 12:53:59;;;;;;;0.80;0.30;;;24.90;96.70;;;;;;5102926;28;20059;-85
2022/09/21 12:56:42;;;;;;;1.70;0.28;;;24.70;96.70;;;;;;5107207;28;20040;-84
2022/09/21 12:59:21;;;;;;;1.10;0.30;;;24.60;96.70;;;;;;5090741;28;20596;-84
2022/09/21 13:01:54;;;;;;;0.70;0.20;;;24.80;96.70;;;;;;5109639;28;20067;-83
2022/09/21 13:04:42;;;;;;;0.60;0.10;;;25.00;96.70;;;;;;5102319;28;20046;-83
2022/09/21 13:07:50;;;;;;;1.38;0.20;;;25.20;96.70;;;;;;5104158;28;20046;-83
2022/09/21 13:10:30;;;;;;;2.17;0.20;;;25.30;96.70;;;;;;5109626;28;20251;-85
2022/09/21 13:13:02;;;;;;;1.40;0.30;;;25.20;96.70;;;;;;5109044;28;20139;-87
2022/09/21 13:15:39;;;;;;;2.08;0.30;;;25.20;96.70;;;;;;5109903;28;20502;-86
2022/09/21 13:18:17;;;;;;;1.05;0.40;;;24.90;96.70;;;;;;5110602;28;20054;-85
2022/09/21 13:20:46;;;;;;;6.97;0.50;;;24.70;96.70;;;;;;5110229;28;20489;-86
2022/09/21 13:23:19;;;;;;;1.52;0.20;;;24.60;96.70;;;;;;5093176;28;20097;-85
2022/09/21 13:25:49;;;;;;;0.95;0.45;;;24.80;96.70;;;;;;5110356;28;20051;-87